Terminal Aerodrome Forecast
Issued by NWS North Platte, NE

Home | Current Version | Previous Version | Text Only | Print | Product List | Glossary Off
Versions: 1 2 3 4 5 6 7 8 9 10 11 12 13 14 15 16 17 18 19 20 21 22 23 24 25 26

000
FTUS43 KLBF 231000 AAA
TAFVTN
TAF AMD
KVTN 231044Z 2311/2406 07006KT P6SM -RA OVC003
      TEMPO 2311/2315 4SM -DZ BR SCT003 OVC007
     FM231500 14011KT 4SM -DZ BR OVC007
     FM240000 11010KT 2SM -DZ BR OVC004=

USA.gov is the U.S. government's official web portal to all federal, state and local government web resources and services.